Terminal Aerodrome Forecast
Issued by NWS

Home | Current Version | Previous Version | Text Only | Print | Product List | Glossary On
Versions: 1 2 3 4 5 6 7 8 9 10 11 12 13 14 15 16 17 18 19 20 21 22 23 24 25 26 27 28
000
FTUS45 KBOU 250744 AAB
TAFAPA
TAF AMD
KAPA 250744Z 2508/2606 35011KT P6SM BKN030 BKN080
     FM250815 35011KT P6SM -SHRA BKN020 OVC050
     FM251000 08006KT P6SM SCT080 BKN220
     FM251700 34010KT P6SM SCT080 BKN140
     FM252100 36015KT P6SM -SHRA BKN060
     FM260200 02015KT P6SM VCSH SCT030 BKN060=

USA.gov is the U.S. government's official web portal to all federal, state and local government web resources and services.